createdAt,value
2023-03-12T00:00:38.945Z,-3.30
2023-03-12T00:03:05.493Z,-3.30
2023-03-12T00:05:32.049Z,-3.30
2023-03-12T00:07:59.836Z,-3.40
2023-03-12T00:10:26.843Z,-3.40
2023-03-12T00:12:53.497Z,-3.50
2023-03-12T00:15:20.139Z,-3.40
2023-03-12T00:17:46.877Z,-3.40
2023-03-12T00:20:13.638Z,-3.50
2023-03-12T00:22:40.138Z,-3.60
2023-03-12T00:25:07.796Z,-3.70
2023-03-12T00:27:34.381Z,-3.70
2023-03-12T00:30:00.917Z,-3.70
2023-03-12T00:32:27.535Z,-3.70
2023-03-12T00:34:55.012Z,-3.70
2023-03-12T00:37:22.142Z,-3.70
2023-03-12T00:39:48.667Z,-3.50
2023-03-12T00:42:15.245Z,-3.50
2023-03-12T00:44:41.921Z,-3.60
2023-03-12T00:47:08.478Z,-3.70
2023-03-12T00:49:34.986Z,-3.60
2023-03-12T00:52:01.641Z,-3.60
2023-03-12T00:54:28.274Z,-3.70
2023-03-12T00:56:54.776Z,-3.70
2023-03-12T00:59:21.286Z,-3.70
2023-03-12T01:01:47.877Z,-3.80
2023-03-12T01:04:14.760Z,-3.80
2023-03-12T01:06:41.280Z,-3.80
2023-03-12T01:09:08.200Z,-3.80
2023-03-12T01:11:35.092Z,-3.90
2023-03-12T01:14:01.694Z,-4.00
2023-03-12T01:16:30.176Z,-3.80
2023-03-12T01:18:57.354Z,-3.70
2023-03-12T01:21:24.397Z,-3.60
2023-03-12T01:23:51.027Z,-3.80
2023-03-12T01:26:17.826Z,-3.80
2023-03-12T01:28:44.379Z,-3.80
2023-03-12T01:31:12.860Z,-3.90
2023-03-12T01:33:40.337Z,-4.00
2023-03-12T01:36:14.952Z,-4.10
2023-03-12T01:38:41.471Z,-4.00
2023-03-12T01:41:07.956Z,-4.00
2023-03-12T01:43:35.316Z,-4.10
2023-03-12T01:46:05.225Z,-3.90
2023-03-12T01:48:53.500Z,-3.80
2023-03-12T01:51:20.435Z,-3.90
2023-03-12T01:53:49.466Z,-3.80
2023-03-12T01:56:17.215Z,-3.90
2023-03-12T01:58:45.443Z,-3.90
2023-03-12T02:01:12.770Z,-4.00
2023-03-12T02:03:39.596Z,-4.10
2023-03-12T02:06:08.395Z,-4.10
2023-03-12T02:08:37.001Z,-4.20
2023-03-12T02:11:03.551Z,-4.30
2023-03-12T02:13:31.245Z,-4.20
2023-03-12T02:15:57.744Z,-4.30
2023-03-12T02:18:24.318Z,-4.20
2023-03-12T02:21:09.275Z,-4.30
2023-03-12T02:23:41.495Z,-4.30
2023-03-12T02:26:08.944Z,-4.20
2023-03-12T02:28:42.486Z,-4.00
2023-03-12T02:31:10.679Z,-4.10
2023-03-12T02:33:37.177Z,-4.10
2023-03-12T02:36:05.065Z,-4.00
2023-03-12T02:38:33.493Z,-4.10
2023-03-12T02:41:15.238Z,-4.20
2023-03-12T02:43:44.250Z,-4.30
2023-03-12T02:46:10.973Z,-4.40
2023-03-12T02:48:37.583Z,-4.40
2023-03-12T02:51:04.512Z,-4.50
2023-03-12T02:53:31.104Z,-4.50
2023-03-12T02:55:57.711Z,-4.30
2023-03-12T02:58:24.302Z,-4.30
2023-03-12T03:00:50.902Z,-4.20
2023-03-12T03:03:17.479Z,-4.30
2023-03-12T03:05:45.832Z,-4.30
2023-03-12T03:08:12.360Z,-4.30
2023-03-12T03:10:39.088Z,-4.40
2023-03-12T03:13:05.744Z,-4.50
2023-03-12T03:15:32.307Z,-4.50
2023-03-12T03:17:59.228Z,-4.30
2023-03-12T03:20:26.671Z,-4.30
2023-03-12T03:22:53.245Z,-4.30
2023-03-12T03:25:22.233Z,-4.30
2023-03-12T03:27:48.951Z,-4.40
2023-03-12T03:30:16.705Z,-4.50
2023-03-12T03:32:43.613Z,-4.50
2023-03-12T03:35:10.193Z,-4.60
2023-03-12T03:37:36.684Z,-4.60
2023-03-12T03:40:03.589Z,-4.60
2023-03-12T03:42:30.104Z,-4.60
2023-03-12T03:44:56.639Z,-4.50
2023-03-12T03:47:23.185Z,-4.50
2023-03-12T03:49:49.753Z,-4.40
2023-03-12T03:52:16.346Z,-4.60
2023-03-12T03:54:42.861Z,-4.70
2023-03-12T03:57:09.364Z,-4.70
2023-03-12T03:59:35.867Z,-4.70
2023-03-12T04:02:02.482Z,-4.70
2023-03-12T04:04:29.118Z,-4.80
2023-03-12T04:06:55.642Z,-4.80
2023-03-12T04:09:22.166Z,-4.80
2023-03-12T04:11:48.735Z,-4.80
2023-03-12T04:14:15.222Z,-4.80
2023-03-12T04:16:41.767Z,-4.70
2023-03-12T04:19:08.269Z,-4.40
2023-03-12T04:21:35.525Z,-4.10
2023-03-12T04:24:02.080Z,-4.00
2023-03-12T04:26:28.678Z,-4.10
2023-03-12T04:28:55.172Z,-4.10
2023-03-12T04:31:21.986Z,-4.30
2023-03-12T04:33:48.503Z,-4.40
2023-03-12T04:36:16.174Z,-4.50
2023-03-12T04:38:42.749Z,-4.60
2023-03-12T04:41:11.388Z,-4.60
2023-03-12T04:43:37.948Z,-4.60
2023-03-12T04:46:04.996Z,-4.50
2023-03-12T04:48:31.980Z,-4.50
2023-03-12T04:50:58.504Z,-4.60
2023-03-12T04:53:25.371Z,-4.50
2023-03-12T04:55:51.933Z,-4.60
2023-03-12T04:58:18.923Z,-4.60
2023-03-12T05:00:45.655Z,-4.60
2023-03-12T05:03:12.517Z,-4.60
2023-03-12T05:05:39.057Z,-4.60
2023-03-12T05:08:05.893Z,-4.50
2023-03-12T05:10:32.407Z,-4.50
2023-03-12T05:12:58.935Z,-4.50
2023-03-12T05:15:25.832Z,-4.60
2023-03-12T05:17:53.795Z,-4.60
2023-03-12T05:20:21.279Z,-4.60
2023-03-12T05:22:47.801Z,-4.40
2023-03-12T05:25:14.439Z,-4.30
2023-03-12T05:27:40.977Z,-4.30
2023-03-12T05:30:07.791Z,-4.30
2023-03-12T05:32:34.399Z,-4.30
2023-03-12T05:35:00.945Z,-4.30
2023-03-12T05:37:27.605Z,-4.30
2023-03-12T05:39:54.650Z,-4.30
2023-03-12T05:42:21.325Z,-4.30
2023-03-12T05:44:47.913Z,-4.20
2023-03-12T05:47:14.459Z,-4.20
2023-03-12T05:49:41.014Z,-4.00
2023-03-12T05:52:07.557Z,-4.00
2023-03-12T05:54:34.087Z,-3.90
2023-03-12T05:57:00.696Z,-3.80
2023-03-12T05:59:27.320Z,-3.90
2023-03-12T06:01:54.010Z,-3.90
2023-03-12T06:04:20.809Z,-3.90
2023-03-12T06:06:47.334Z,-3.80
2023-03-12T06:09:13.851Z,-3.80
2023-03-12T06:11:40.406Z,-3.70
2023-03-12T06:14:06.980Z,-3.70
2023-03-12T06:16:33.592Z,-3.70
2023-03-12T06:19:01.740Z,-3.60
2023-03-12T06:21:29.613Z,-3.60
2023-03-12T06:23:56.667Z,-3.60
2023-03-12T06:26:23.415Z,-3.60
2023-03-12T06:28:50.414Z,-3.50
2023-03-12T06:31:17.157Z,-3.50
2023-03-12T06:33:43.755Z,-3.40
2023-03-12T06:36:10.786Z,-3.40
2023-03-12T06:38:37.440Z,-3.40
2023-03-12T06:41:08.993Z,-3.40
2023-03-12T06:43:36.339Z,-3.30
2023-03-12T06:46:03.746Z,-3.30
2023-03-12T06:48:31.207Z,-3.10
2023-03-12T06:50:57.728Z,-3.10
2023-03-12T06:53:25.771Z,-3.10
2023-03-12T06:55:52.287Z,-3.00
2023-03-12T06:58:19.001Z,-2.90
2023-03-12T07:00:45.538Z,-2.70
2023-03-12T07:03:12.122Z,-2.60
2023-03-12T07:05:38.743Z,-2.50
2023-03-12T07:08:05.597Z,-2.30
2023-03-12T07:10:32.122Z,-2.10
2023-03-12T07:12:58.721Z,-2.00
2023-03-12T07:15:25.248Z,-1.80
2023-03-12T07:17:51.807Z,-1.60
2023-03-12T07:20:18.320Z,-1.40
2023-03-12T07:22:44.945Z,-1.30
2023-03-12T07:25:11.651Z,-1.10
2023-03-12T07:27:38.215Z,-0.90
2023-03-12T07:30:04.945Z,-0.80
2023-03-12T07:32:33.516Z,-0.60
2023-03-12T07:35:00.258Z,-0.50
2023-03-12T07:37:26.830Z,-0.40
2023-03-12T07:39:54.660Z,-0.20
2023-03-12T07:42:21.684Z,0.00
2023-03-12T07:44:48.586Z,0.10
2023-03-12T07:47:23.485Z,0.20
2023-03-12T07:49:50.443Z,0.20
2023-03-12T07:52:18.041Z,0.30
2023-03-12T07:54:44.765Z,0.30
2023-03-12T07:57:11.388Z,0.30
2023-03-12T07:59:38.003Z,0.30
2023-03-12T08:02:04.662Z,0.30
2023-03-12T08:04:31.328Z,0.20
2023-03-12T08:06:58.296Z,0.20
2023-03-12T08:09:25.399Z,0.20
2023-03-12T08:11:51.933Z,0.20
2023-03-12T08:14:18.516Z,0.30
2023-03-12T08:16:45.266Z,0.60
2023-03-12T08:19:11.861Z,0.80
2023-03-12T08:21:38.407Z,1.00
2023-03-12T08:24:04.945Z,1.10
2023-03-12T08:26:31.637Z,1.30
2023-03-12T08:29:00.218Z,1.40
2023-03-12T08:31:28.188Z,1.50
2023-03-12T08:33:54.960Z,1.70
2023-03-12T08:36:22.589Z,1.80
2023-03-12T08:38:49.329Z,1.90
2023-03-12T08:41:15.867Z,2.10
2023-03-12T08:43:42.442Z,2.20
2023-03-12T08:46:11.816Z,2.30
2023-03-12T08:48:39.404Z,2.40
2023-03-12T08:51:07.481Z,2.60
2023-03-12T08:53:34.989Z,2.70
2023-03-12T08:56:02.222Z,2.80
2023-03-12T08:58:29.150Z,2.90
2023-03-12T09:00:56.054Z,3.00
2023-03-12T09:03:23.426Z,3.00
2023-03-12T09:05:50.451Z,3.00
2023-03-12T09:08:17.263Z,2.80
2023-03-12T09:10:48.361Z,2.80
2023-03-12T09:13:14.908Z,2.70
2023-03-12T09:15:41.623Z,2.60
2023-03-12T09:18:09.521Z,2.50
2023-03-12T09:20:36.234Z,2.40
2023-03-12T09:23:02.859Z,2.50
2023-03-12T09:25:29.717Z,2.60
2023-03-12T09:27:56.216Z,2.70
2023-03-12T09:30:26.310Z,2.90
2023-03-12T09:32:53.499Z,3.00
2023-03-12T09:35:20.057Z,3.10
2023-03-12T09:37:48.014Z,3.30
2023-03-12T09:40:19.135Z,3.30
2023-03-12T09:43:04.282Z,3.30
2023-03-12T09:45:32.095Z,3.50
2023-03-12T09:48:01.931Z,3.70
2023-03-12T09:50:39.866Z,3.80
2023-03-12T09:53:11.816Z,3.90
2023-03-12T09:55:40.156Z,3.90
2023-03-12T09:58:12.502Z,3.60
2023-03-12T10:00:39.120Z,3.60
2023-03-12T10:03:10.009Z,3.60
2023-03-12T10:05:39.075Z,3.70
2023-03-12T10:08:25.173Z,3.80
2023-03-12T10:11:12.754Z,3.70
2023-03-12T10:13:54.117Z,3.90
2023-03-12T10:16:23.524Z,3.80
2023-03-12T10:19:08.744Z,4.00
2023-03-12T10:21:42.151Z,4.20
2023-03-12T10:24:15.314Z,4.20
2023-03-12T10:26:47.504Z,4.40
2023-03-12T10:29:13.971Z,4.70
2023-03-12T10:31:48.410Z,4.90
2023-03-12T10:34:25.267Z,5.00
2023-03-12T10:36:51.992Z,5.10
2023-03-12T10:39:19.784Z,5.20
2023-03-12T10:41:47.428Z,5.40
2023-03-12T10:44:21.246Z,5.50
2023-03-12T10:47:04.805Z,5.60
2023-03-12T10:49:33.196Z,5.70
2023-03-12T10:51:59.747Z,5.80
2023-03-12T10:54:29.228Z,5.90
2023-03-12T10:56:55.822Z,5.90
2023-03-12T10:59:25.587Z,6.10
2023-03-12T11:01:52.768Z,6.00
2023-03-12T11:04:22.278Z,6.00
2023-03-12T11:07:08.165Z,6.00
2023-03-12T11:09:34.764Z,6.00
2023-03-12T11:12:01.573Z,5.80
2023-03-12T11:14:29.480Z,6.10
2023-03-12T11:16:56.963Z,6.10
2023-03-12T11:19:28.416Z,6.10
2023-03-12T11:21:57.333Z,6.20
2023-03-12T11:24:23.879Z,6.10
2023-03-12T11:26:51.689Z,5.90
2023-03-12T11:29:23.952Z,6.00
2023-03-12T11:31:59.690Z,5.90
2023-03-12T11:34:30.333Z,5.80
2023-03-12T11:36:56.929Z,5.70
2023-03-12T11:39:23.446Z,5.70
2023-03-12T11:42:08.478Z,5.80
2023-03-12T11:44:41.194Z,5.90
2023-03-12T11:47:32.369Z,6.10
2023-03-12T11:50:17.955Z,6.20
2023-03-12T11:53:09.737Z,6.40
2023-03-12T11:55:51.570Z,6.30
2023-03-12T11:58:36.455Z,6.30
2023-03-12T12:01:29.292Z,6.40
2023-03-12T12:04:04.496Z,6.50
2023-03-12T12:06:44.897Z,6.30
2023-03-12T12:09:12.764Z,6.40
2023-03-12T12:12:05.655Z,6.30
2023-03-12T12:14:51.333Z,6.40
2023-03-12T12:17:25.543Z,6.40
2023-03-12T12:19:59.841Z,6.30
2023-03-12T12:22:32.089Z,6.00
2023-03-12T12:25:12.425Z,5.90
2023-03-12T12:27:48.040Z,5.90
2023-03-12T12:30:14.608Z,5.90
2023-03-12T12:32:44.267Z,6.20
2023-03-12T12:35:19.970Z,6.40
2023-03-12T12:37:51.120Z,6.50
2023-03-12T12:40:20.756Z,6.60
2023-03-12T12:43:07.652Z,6.50
2023-03-12T12:45:38.739Z,6.50
2023-03-12T12:48:25.216Z,6.30
2023-03-12T12:50:53.819Z,6.10
2023-03-12T12:53:22.863Z,5.90
2023-03-12T12:55:50.310Z,5.80
2023-03-12T12:58:23.298Z,5.80
2023-03-12T13:00:51.828Z,5.80
2023-03-12T13:03:19.486Z,5.70
2023-03-12T13:05:46.062Z,5.70
2023-03-12T13:08:31.505Z,5.60
2023-03-12T13:11:15.862Z,5.60
2023-03-12T13:14:02.177Z,5.70
2023-03-12T13:16:36.196Z,5.70
2023-03-12T13:19:15.141Z,5.50
2023-03-12T13:21:51.114Z,5.50
2023-03-12T13:24:26.572Z,5.50
2023-03-12T13:27:00.557Z,5.50
2023-03-12T13:29:31.182Z,5.60
2023-03-12T13:31:57.872Z,5.50
2023-03-12T13:34:27.530Z,5.50
2023-03-12T13:37:01.785Z,5.50
2023-03-12T13:39:32.912Z,5.60
2023-03-12T13:42:00.963Z,5.70
2023-03-12T13:44:27.581Z,5.70
2023-03-12T13:46:58.746Z,5.60
2023-03-12T13:49:30.232Z,5.50
2023-03-12T13:52:01.989Z,5.50
2023-03-12T13:54:31.708Z,5.50
2023-03-12T13:57:00.114Z,5.40
2023-03-12T13:59:27.816Z,5.30
2023-03-12T14:01:57.647Z,5.10
2023-03-12T14:04:29.621Z,5.10
2023-03-12T14:07:02.489Z,5.10
2023-03-12T14:09:45.909Z,5.10
2023-03-12T14:12:20.639Z,5.10
2023-03-12T14:14:50.417Z,5.00
2023-03-12T14:17:19.372Z,5.00
2023-03-12T14:19:48.451Z,5.00
2023-03-12T14:22:15.271Z,5.10
2023-03-12T14:24:48.063Z,5.00
2023-03-12T14:27:17.697Z,5.00
2023-03-12T14:29:52.108Z,5.00
2023-03-12T14:32:28.258Z,5.10
2023-03-12T14:35:03.597Z,5.00
2023-03-12T14:37:37.075Z,4.90
2023-03-12T14:40:08.447Z,5.00
2023-03-12T14:42:35.893Z,4.90
2023-03-12T14:45:10.050Z,5.00
2023-03-12T14:47:40.969Z,5.00
2023-03-12T14:50:19.813Z,5.00
2023-03-12T14:52:46.474Z,5.10
2023-03-12T14:55:14.506Z,5.20
2023-03-12T14:57:41.746Z,5.10
2023-03-12T15:00:16.224Z,5.10
2023-03-12T15:02:48.543Z,5.10
2023-03-12T15:05:18.900Z,5.10
2023-03-12T15:07:46.177Z,5.00
2023-03-12T15:10:21.598Z,4.90
2023-03-12T15:12:48.572Z,4.90
2023-03-12T15:15:39.769Z,4.90
2023-03-12T15:18:07.899Z,4.90
2023-03-12T15:20:35.138Z,5.00
2023-03-12T15:23:04.315Z,5.00
2023-03-12T15:25:32.476Z,5.00
2023-03-12T15:28:03.925Z,5.00
2023-03-12T15:30:31.343Z,5.00
2023-03-12T15:33:03.717Z,5.00
2023-03-12T15:35:30.634Z,5.10
2023-03-12T15:37:57.543Z,5.10
2023-03-12T15:40:25.579Z,5.00
2023-03-12T15:42:57.378Z,5.00
2023-03-12T15:45:26.438Z,5.00
2023-03-12T15:47:54.135Z,4.90
2023-03-12T15:50:27.358Z,5.00
2023-03-12T15:56:09.428Z,5.10
2023-03-12T15:58:40.578Z,5.00
2023-03-12T16:01:07.275Z,5.00
2023-03-12T16:03:33.924Z,5.00
2023-03-12T16:06:00.514Z,5.00
2023-03-12T16:08:36.353Z,5.00
2023-03-12T16:11:03.144Z,4.90
2023-03-12T16:13:31.559Z,5.10
2023-03-12T16:15:58.669Z,5.00
2023-03-12T16:18:25.384Z,5.00
2023-03-12T16:20:52.755Z,5.00
2023-03-12T16:23:19.532Z,5.00
2023-03-12T16:25:47.935Z,5.00
2023-03-12T16:28:16.297Z,5.00
2023-03-12T16:30:43.128Z,5.00
2023-03-12T16:33:13.137Z,4.90
2023-03-12T16:35:39.705Z,4.90
2023-03-12T16:38:07.315Z,4.90
2023-03-12T17:01:31.476Z,5.10
2023-03-12T17:03:58.784Z,5.00
2023-03-12T17:06:26.592Z,5.00
2023-03-12T17:08:53.662Z,5.00
2023-03-12T17:11:32.017Z,5.00
2023-03-12T17:14:00.032Z,5.00
2023-03-12T17:16:27.316Z,5.00
2023-03-12T17:18:54.047Z,5.00
2023-03-12T17:21:21.244Z,5.00
2023-03-12T17:23:50.234Z,5.00
2023-03-12T17:26:17.277Z,5.00
2023-03-12T17:28:44.098Z,5.10
2023-03-12T17:31:10.666Z,5.10
2023-03-12T17:33:38.190Z,5.00
2023-03-12T17:36:06.344Z,5.00
2023-03-12T17:38:33.365Z,5.00
2023-03-12T17:41:00.392Z,4.90
2023-03-12T17:43:27.092Z,5.00
2023-03-12T17:45:53.727Z,5.10
2023-03-12T17:48:23.009Z,5.10
2023-03-12T17:50:49.674Z,5.20
2023-03-12T17:53:16.583Z,5.20
2023-03-12T17:55:43.149Z,5.20
2023-03-12T17:58:09.662Z,5.20
2023-03-12T18:00:36.259Z,5.30
2023-03-12T18:03:03.489Z,5.30
2023-03-12T18:05:30.128Z,5.30
2023-03-12T18:07:56.742Z,5.30
2023-03-12T18:10:23.378Z,5.30
2023-03-12T18:12:49.950Z,5.30
2023-03-12T18:15:16.763Z,5.20
2023-03-12T18:17:49.826Z,5.20
2023-03-12T18:20:25.832Z,5.20
2023-03-12T18:22:58.992Z,5.30
2023-03-12T18:25:25.547Z,5.30
2023-03-12T18:27:52.543Z,5.30
2023-03-12T18:30:20.979Z,5.30
2023-03-12T18:32:47.933Z,5.20
2023-03-12T18:35:14.504Z,5.20
2023-03-12T18:37:41.629Z,5.20
2023-03-12T18:40:08.554Z,5.20
2023-03-12T18:42:35.132Z,5.20
2023-03-12T18:45:02.534Z,5.20
2023-03-12T18:47:29.108Z,5.20
2023-03-12T18:49:55.829Z,5.10
2023-03-12T18:52:22.503Z,5.20
2023-03-12T18:54:49.005Z,5.30
2023-03-12T18:57:15.496Z,5.30
2023-03-12T18:59:46.342Z,5.40
2023-03-12T19:02:12.888Z,5.40
2023-03-12T19:04:39.698Z,5.40
2023-03-12T19:07:06.643Z,5.50
2023-03-12T19:09:33.906Z,5.50
2023-03-12T19:12:00.506Z,5.50
2023-03-12T19:14:27.428Z,5.50
2023-03-12T19:16:53.942Z,5.60
2023-03-12T19:19:21.623Z,5.60
2023-03-12T19:21:48.598Z,5.60
2023-03-12T19:24:15.137Z,5.60
2023-03-12T19:26:42.273Z,5.70
2023-03-12T19:29:08.823Z,5.70
2023-03-12T19:31:35.445Z,5.70
2023-03-12T19:34:03.113Z,5.70
2023-03-12T19:36:29.603Z,5.70
2023-03-12T19:38:56.203Z,5.60
2023-03-12T19:41:22.770Z,5.70
2023-03-12T19:43:49.341Z,5.60
2023-03-12T19:46:15.905Z,5.80
2023-03-12T19:48:42.537Z,5.70
2023-03-12T19:51:09.973Z,5.80
2023-03-12T19:53:36.844Z,5.80
2023-03-12T19:56:04.089Z,5.80
2023-03-12T19:58:30.584Z,5.80
2023-03-12T20:01:01.023Z,5.80
2023-03-12T20:03:28.575Z,5.80
2023-03-12T20:05:55.583Z,5.90
2023-03-12T20:08:22.574Z,5.90
2023-03-12T20:10:49.467Z,5.90
2023-03-12T20:13:17.582Z,5.90
2023-03-12T20:15:48.348Z,6.00
2023-03-12T20:18:15.419Z,6.00
2023-03-12T20:20:42.486Z,6.00
2023-03-12T20:23:09.437Z,6.00
2023-03-12T20:25:39.050Z,6.00
2023-03-12T20:28:05.597Z,6.00
2023-03-12T20:30:32.182Z,6.00
2023-03-12T20:32:58.804Z,6.10
2023-03-12T20:35:25.391Z,6.10
2023-03-12T20:37:51.922Z,6.10
2023-03-12T20:40:18.461Z,6.00
2023-03-12T20:42:45.082Z,5.90
2023-03-12T20:45:11.624Z,5.90
2023-03-12T20:47:40.165Z,5.90
2023-03-12T20:50:07.157Z,5.80
2023-03-12T20:52:33.902Z,5.80
2023-03-12T20:55:00.430Z,5.70
2023-03-12T20:57:27.431Z,5.80
2023-03-12T20:59:53.974Z,5.70
2023-03-12T21:02:21.706Z,5.80
2023-03-12T21:04:49.625Z,5.80
2023-03-12T21:07:16.208Z,5.90
2023-03-12T21:09:46.044Z,5.90
2023-03-12T21:12:13.738Z,5.90
2023-03-12T21:14:40.835Z,6.00
2023-03-12T21:17:11.346Z,5.90
2023-03-12T21:19:37.914Z,5.90
2023-03-12T21:22:06.814Z,6.00
2023-03-12T21:24:34.007Z,6.00
2023-03-12T21:27:00.812Z,6.10
2023-03-12T21:29:27.739Z,6.10
2023-03-12T21:31:54.685Z,6.10
2023-03-12T21:34:21.482Z,6.10
2023-03-12T21:36:48.166Z,6.10
2023-03-12T21:39:14.813Z,6.10
2023-03-12T21:41:41.406Z,6.20
2023-03-12T21:44:07.959Z,6.20
2023-03-12T21:46:34.632Z,6.30
2023-03-12T21:49:01.311Z,6.30
2023-03-12T21:51:28.009Z,6.40
2023-03-12T21:53:55.159Z,6.50
2023-03-12T21:56:22.053Z,6.50
2023-03-12T21:58:48.583Z,6.60
2023-03-12T22:01:16.027Z,6.60
2023-03-12T22:03:45.443Z,6.60
2023-03-12T22:06:12.797Z,6.50
2023-03-12T22:08:39.704Z,6.50
2023-03-12T22:11:06.660Z,6.60
2023-03-12T22:13:33.256Z,6.60
2023-03-12T22:16:00.899Z,6.60
2023-03-12T22:18:28.153Z,6.60
2023-03-12T22:20:55.875Z,6.60
2023-03-12T22:23:23.418Z,6.70
2023-03-12T22:25:49.988Z,6.70
2023-03-12T22:28:18.007Z,6.70
2023-03-12T22:30:44.565Z,6.70
2023-03-12T22:33:11.334Z,6.70
2023-03-12T22:35:44.901Z,6.70
2023-03-12T22:38:11.913Z,6.70
2023-03-12T22:40:39.032Z,6.70
2023-03-12T22:43:05.603Z,6.80
2023-03-12T22:45:32.411Z,6.80
2023-03-12T22:47:59.120Z,6.90
2023-03-12T22:50:25.826Z,6.90
2023-03-12T22:52:52.316Z,6.90
2023-03-12T22:55:18.816Z,6.90
2023-03-12T22:57:45.324Z,6.90
2023-03-12T23:03:08.181Z,6.90
2023-03-12T23:05:35.713Z,6.90
2023-03-12T23:08:02.243Z,6.90
2023-03-12T23:10:28.752Z,6.90
2023-03-12T23:12:55.286Z,6.90
2023-03-12T23:15:24.500Z,6.80
2023-03-12T23:17:55.582Z,6.90
2023-03-12T23:20:23.756Z,6.90
2023-03-12T23:22:50.376Z,6.90
2023-03-12T23:25:16.962Z,6.90
2023-03-12T23:27:43.480Z,6.90
2023-03-12T23:30:10.359Z,6.80
2023-03-12T23:32:36.913Z,6.80
2023-03-12T23:35:03.502Z,6.70
2023-03-12T23:37:30.183Z,6.80
2023-03-12T23:39:56.679Z,6.80
2023-03-12T23:42:23.200Z,6.80
2023-03-12T23:44:49.727Z,6.80
2023-03-12T23:47:16.226Z,6.80
2023-03-12T23:49:42.746Z,6.80
2023-03-12T23:52:09.246Z,6.80
2023-03-12T23:54:36.869Z,6.80
2023-03-12T23:57:03.537Z,6.80
2023-03-12T23:59:30.164Z,6.80
